Moorslede, Belgium
Current Conditions -  °F | °C
As of 4:55 PM on Saturday 25 Oct 2014 (Local Time) from EBFN Reporting Station
Broken Clouds Broken Clouds  
Wind Chill: 57°   Ceiling: 4300
Heat Index: 57°   Visibility: 6mi
Dew Point: 45°   Wind: 10mph
Humidity: 63%   Direction: 250°WSW
Pressure: 30.12"   Gusts: NA
Location:  50.89°N, 3.06°E
Report Text: EBFN 251455Z 25009KT 9999 FEW035 BKN043 14/07 Q1020 BLU
Loading
Personal Weather Stations






























Interactive Weather Map
Tropical Storm Tracking
New forecast layout! Learn more

10-Day Weather Forecast

Advertisements
Track Severe Weather on mobile